createdAt,value
2022-10-02T00:01:44.928Z,4.00
2022-10-02T00:07:16.863Z,4.00
2022-10-02T00:12:48.848Z,4.00
2022-10-02T00:18:21.050Z,2.00
2022-10-02T00:23:52.784Z,2.00
2022-10-02T00:29:25.446Z,4.00
2022-10-02T00:40:29.065Z,3.00
2022-10-02T00:51:32.522Z,3.00
2022-10-02T00:57:06.320Z,4.00
2022-10-02T01:02:38.369Z,4.00
2022-10-02T01:08:10.208Z,2.00
2022-10-02T01:13:42.039Z,3.00
2022-10-02T01:24:45.648Z,4.00
2022-10-02T01:30:17.656Z,3.00
2022-10-02T01:35:49.560Z,4.00
2022-10-02T01:41:21.169Z,4.00
2022-10-02T01:57:59.026Z,4.00
2022-10-02T02:09:02.482Z,4.00
2022-10-02T02:14:34.359Z,2.00
2022-10-02T02:20:05.852Z,4.00
2022-10-02T02:25:37.669Z,4.00
2022-10-02T02:36:41.068Z,1.00
2022-10-02T02:42:15.601Z,2.00
2022-10-02T02:47:44.407Z,2.00
2022-10-02T02:53:16.464Z,1.00
2022-10-02T02:58:48.705Z,2.00
2022-10-02T03:04:20.689Z,2.00
2022-10-02T03:09:52.696Z,2.00
2022-10-02T03:15:24.592Z,2.00
2022-10-02T03:20:56.412Z,2.00
2022-10-02T03:26:28.254Z,0.00
2022-10-02T03:32:00.098Z,0.00
2022-10-02T03:43:01.043Z,2.00
2022-10-02T03:59:32.101Z,0.00
2022-10-02T04:05:03.988Z,1.00
2022-10-02T04:10:35.685Z,2.00
2022-10-02T04:16:07.538Z,1.00
2022-10-02T04:21:39.169Z,1.00
2022-10-02T04:27:11.089Z,1.00
2022-10-02T04:32:43.207Z,2.00
2022-10-02T04:38:15.425Z,2.00
2022-10-02T04:43:47.442Z,2.00
2022-10-02T04:54:48.780Z,14.00
2022-10-02T05:00:20.699Z,39.00
2022-10-02T05:05:52.508Z,96.00
2022-10-02T05:11:25.018Z,167.00
2022-10-02T05:16:57.046Z,205.00
2022-10-02T05:24:49.998Z,248.00
2022-10-02T05:30:21.769Z,238.00
2022-10-02T05:35:53.491Z,345.00
2022-10-02T05:41:25.375Z,672.00
2022-10-02T05:46:57.388Z,866.00
2022-10-02T06:03:28.104Z,1298.00
2022-10-02T06:08:59.819Z,1737.00
2022-10-02T06:14:31.598Z,2737.00
2022-10-02T06:25:32.883Z,2456.00
2022-10-02T06:31:04.489Z,1880.00
2022-10-02T06:36:36.274Z,3216.00
2022-10-02T06:47:37.406Z,2983.00
2022-10-02T06:53:09.027Z,4268.00
2022-10-02T06:58:40.800Z,5139.00
2022-10-02T07:04:12.576Z,6416.00
2022-10-02T07:09:44.354Z,7241.00
2022-10-02T07:15:16.490Z,9096.00
2022-10-02T07:26:17.790Z,8943.00
2022-10-02T07:31:49.390Z,12550.00
2022-10-02T07:37:21.190Z,13707.00
2022-10-02T07:42:52.977Z,16446.00
2022-10-02T07:48:24.612Z,15901.00
2022-10-02T07:53:56.118Z,14359.00
2022-10-02T07:59:27.693Z,15347.00
2022-10-02T08:04:59.475Z,13060.00
2022-10-02T08:20:42.162Z,15361.00
2022-10-02T08:26:13.929Z,15832.00
2022-10-02T08:31:45.845Z,10385.00
2022-10-02T08:37:17.646Z,14651.00
2022-10-02T08:42:49.424Z,16489.00
2022-10-02T08:48:21.594Z,11879.00
2022-10-02T08:53:53.451Z,8895.00
2022-10-02T08:59:25.026Z,9298.00
2022-10-02T09:04:57.740Z,14453.00
2022-10-02T09:10:29.847Z,19994.00
2022-10-02T09:27:05.247Z,14533.00
2022-10-02T09:32:36.797Z,18517.00
2022-10-02T09:38:08.520Z,14915.00
2022-10-02T09:43:40.296Z,15487.00
2022-10-02T09:49:11.971Z,21577.00
2022-10-02T09:54:43.849Z,23269.00
2022-10-02T10:00:15.598Z,19122.00
2022-10-02T10:05:47.275Z,18165.00
2022-10-02T10:11:19.256Z,24097.00
2022-10-02T10:22:22.828Z,21057.00
2022-10-02T10:27:54.708Z,19136.00
2022-10-02T10:33:26.330Z,14656.00
2022-10-02T10:38:58.290Z,9387.00
2022-10-02T10:44:29.965Z,5908.00
2022-10-02T10:50:01.563Z,0.00
2022-10-02T10:55:33.105Z,2864.00
2022-10-02T11:01:04.599Z,6631.00
2022-10-02T11:06:36.439Z,4581.00
2022-10-02T11:12:09.796Z,14602.00
2022-10-02T11:17:40.416Z,6866.00
2022-10-02T11:39:44.774Z,7099.00
2022-10-02T11:45:18.989Z,11443.00
2022-10-02T11:56:22.574Z,22280.00
2022-10-02T12:01:54.473Z,23852.00
2022-10-02T12:07:26.015Z,20630.00
2022-10-02T12:18:37.956Z,11955.00
2022-10-02T12:24:09.826Z,11602.00
2022-10-02T12:29:41.496Z,10787.00
2022-10-02T12:35:13.377Z,9174.00
2022-10-02T12:40:45.043Z,9456.00
2022-10-02T12:46:16.936Z,17827.00
2022-10-02T12:51:48.594Z,13766.00
2022-10-02T12:57:20.421Z,16381.00
2022-10-02T13:03:07.372Z,22215.00
2022-10-02T13:13:57.168Z,8105.00
2022-10-02T13:19:28.962Z,4673.00
2022-10-02T13:25:00.733Z,6033.00
2022-10-02T13:30:32.469Z,11485.00
2022-10-02T13:41:33.889Z,18154.00
2022-10-02T13:58:08.950Z,12799.00
2022-10-02T14:09:12.553Z,11254.00
2022-10-02T14:14:46.568Z,17619.00
2022-10-02T14:20:18.411Z,5119.00
2022-10-02T14:25:50.131Z,4219.00
2022-10-02T14:42:32.367Z,2890.00
2022-10-02T14:53:36.130Z,6971.00
2022-10-02T14:59:09.498Z,8612.00
2022-10-02T15:04:42.832Z,5675.00
2022-10-02T15:10:14.463Z,5140.00
2022-10-02T15:15:46.306Z,2393.00
2022-10-02T15:21:17.954Z,2992.00
2022-10-02T15:26:49.679Z,3888.00
2022-10-02T15:32:21.613Z,5462.00
2022-10-02T15:37:52.913Z,3425.00
2022-10-02T15:45:46.628Z,4885.00
2022-10-02T15:51:18.370Z,2795.00
2022-10-02T15:56:49.763Z,1736.00
2022-10-02T16:02:21.497Z,834.00
2022-10-02T16:07:53.086Z,709.00
2022-10-02T16:13:24.855Z,997.00
2022-10-02T16:18:56.509Z,855.00
2022-10-02T16:24:28.275Z,1036.00
2022-10-02T16:30:00.431Z,945.00
2022-10-02T16:35:32.013Z,779.00
2022-10-02T16:41:03.930Z,477.00
2022-10-02T16:46:36.027Z,307.00
2022-10-02T16:52:07.398Z,190.00
2022-10-02T16:57:39.208Z,112.00
2022-10-02T17:03:10.827Z,77.00
2022-10-02T17:08:42.871Z,31.00
2022-10-02T17:14:14.879Z,13.00
2022-10-02T17:19:46.660Z,6.00
2022-10-02T17:25:18.417Z,2.00
2022-10-02T17:30:49.764Z,3.00
2022-10-02T17:36:21.238Z,4.00
2022-10-02T17:41:53.169Z,2.00
2022-10-02T17:47:24.780Z,3.00
2022-10-02T17:52:56.229Z,3.00
2022-10-02T17:58:27.925Z,2.00
2022-10-02T18:09:28.729Z,2.00
2022-10-02T18:15:00.228Z,4.00
2022-10-02T18:20:32.192Z,3.00
2022-10-02T18:26:04.043Z,4.00
2022-10-02T18:31:54.740Z,4.00
2022-10-02T18:37:07.551Z,4.00
2022-10-02T18:42:39.005Z,3.00
2022-10-02T18:48:12.228Z,4.00
2022-10-02T18:53:43.095Z,2.00
2022-10-02T18:59:14.923Z,3.00
2022-10-02T19:04:46.796Z,2.00
2022-10-02T19:10:18.539Z,4.00
2022-10-02T19:15:50.530Z,3.00
2022-10-02T19:21:22.181Z,3.00
2022-10-02T19:26:54.160Z,2.00
2022-10-02T19:32:26.040Z,3.00
2022-10-02T19:37:57.548Z,3.00
2022-10-02T19:43:29.274Z,3.00
2022-10-02T19:49:01.346Z,3.00
2022-10-02T19:54:32.934Z,3.00
2022-10-02T20:00:04.824Z,4.00
2022-10-02T20:05:36.446Z,2.00
2022-10-02T20:11:08.403Z,3.00
2022-10-02T20:16:40.626Z,2.00
2022-10-02T20:22:12.258Z,2.00
2022-10-02T20:27:43.990Z,2.00
2022-10-02T20:33:15.767Z,4.00
2022-10-02T20:38:47.737Z,2.00
2022-10-02T20:44:19.461Z,4.00
2022-10-02T20:49:51.424Z,3.00
2022-10-02T20:55:23.016Z,2.00
2022-10-02T21:00:54.896Z,4.00
2022-10-02T21:06:26.862Z,3.00
2022-10-02T21:11:58.656Z,2.00
2022-10-02T21:17:30.093Z,3.00
2022-10-02T21:23:01.977Z,2.00
2022-10-02T21:28:33.749Z,2.00
2022-10-02T21:34:05.486Z,3.00
2022-10-02T21:39:37.821Z,4.00
2022-10-02T21:45:09.757Z,3.00
2022-10-02T21:50:41.705Z,2.00
2022-10-02T21:56:13.214Z,2.00
2022-10-02T22:02:06.797Z,1.00
2022-10-02T22:07:17.023Z,2.00
2022-10-02T22:12:48.807Z,2.00
2022-10-02T22:18:20.556Z,2.00
2022-10-02T22:23:52.409Z,1.00
2022-10-02T22:29:24.217Z,1.00
2022-10-02T22:34:56.378Z,1.00
2022-10-02T22:40:28.368Z,2.00
2022-10-02T22:46:00.203Z,2.00
2022-10-02T22:51:31.753Z,2.00
2022-10-02T22:57:03.727Z,2.00
2022-10-02T23:02:35.451Z,2.00
2022-10-02T23:08:07.198Z,1.00
2022-10-02T23:13:38.913Z,1.00
2022-10-02T23:19:10.486Z,2.00
2022-10-02T23:24:42.382Z,1.00
2022-10-02T23:30:14.244Z,2.00
2022-10-02T23:35:46.204Z,0.00
2022-10-02T23:41:18.118Z,1.00
2022-10-02T23:46:49.496Z,1.00
2022-10-02T23:52:21.401Z,1.00
2022-10-02T23:57:53.375Z,1.00
